createdAt,value
2023-04-28T00:00:22.081Z,5.78
2023-04-28T00:01:22.017Z,5.77
2023-04-28T00:02:22.092Z,5.81
2023-04-28T00:03:22.179Z,5.75
2023-04-28T00:04:23.294Z,5.75
2023-04-28T00:05:22.121Z,5.74
2023-04-28T00:06:21.942Z,5.74
2023-04-28T00:07:21.934Z,5.76
2023-04-28T00:08:21.929Z,5.76
2023-04-28T00:09:21.851Z,5.74
2023-04-28T00:10:21.875Z,5.73
2023-04-28T00:11:21.821Z,5.71
2023-04-28T00:12:21.756Z,5.69
2023-04-28T00:13:21.723Z,5.68
2023-04-28T00:14:21.760Z,5.70
2023-04-28T00:15:21.802Z,5.71
2023-04-28T00:16:22.806Z,5.65
2023-04-28T00:17:21.792Z,5.61
2023-04-28T00:18:22.833Z,5.53
2023-04-28T00:19:21.696Z,5.56
2023-04-28T00:20:21.743Z,5.56
2023-04-28T00:21:21.633Z,5.55
2023-04-28T00:22:23.228Z,5.58
2023-04-28T00:23:21.604Z,5.51
2023-04-28T00:24:21.574Z,5.52
2023-04-28T00:25:21.582Z,5.48
2023-04-28T00:26:21.569Z,5.43
2023-04-28T00:27:21.523Z,5.42
2023-04-28T00:28:33.532Z,5.43
2023-04-28T00:29:22.714Z,5.37
2023-04-28T00:30:21.722Z,5.30
2023-04-28T00:31:23.035Z,5.33
2023-04-28T00:32:21.886Z,5.35
2023-04-28T00:33:21.841Z,5.30
2023-04-28T00:34:23.758Z,5.33
2023-04-28T00:35:22.082Z,5.37
2023-04-28T00:36:24.844Z,5.41
2023-04-28T00:37:22.071Z,5.35
2023-04-28T00:38:22.161Z,5.34
2023-04-28T00:39:21.910Z,5.32
2023-04-28T00:40:21.937Z,5.36
2023-04-28T00:41:21.867Z,5.39
2023-04-28T00:42:21.843Z,5.37
2023-04-28T00:43:21.827Z,5.31
2023-04-28T00:44:21.878Z,5.28
2023-04-28T00:45:21.836Z,5.23
2023-04-28T00:46:21.863Z,5.26
2023-04-28T00:47:21.813Z,5.24
2023-04-28T00:48:21.866Z,5.25
2023-04-28T00:49:21.785Z,5.26
2023-04-28T00:50:21.823Z,5.33
2023-04-28T00:51:21.771Z,5.34
2023-04-28T00:52:21.745Z,5.32
2023-04-28T00:53:21.727Z,5.30
2023-04-28T00:54:21.758Z,5.34
2023-04-28T00:55:22.877Z,5.41
2023-04-28T00:56:21.809Z,5.39
2023-04-28T00:57:21.688Z,5.42
2023-04-28T00:58:21.741Z,5.41
2023-04-28T00:59:21.614Z,5.38
2023-04-28T01:00:21.568Z,5.35
2023-04-28T01:01:21.525Z,5.37
2023-04-28T01:02:23.341Z,5.39
2023-04-28T01:03:21.570Z,5.45
2023-04-28T01:04:21.632Z,5.44
2023-04-28T01:05:21.403Z,5.44
2023-04-28T01:06:21.352Z,5.47
2023-04-28T01:07:21.340Z,5.48
2023-04-28T01:08:21.287Z,5.56
2023-04-28T01:09:21.254Z,5.61
2023-04-28T01:10:21.253Z,5.59
2023-04-28T01:11:21.210Z,5.62
2023-04-28T01:12:21.177Z,5.66
2023-04-28T01:13:21.195Z,5.66
2023-04-28T01:14:21.189Z,5.58
2023-04-28T01:15:21.269Z,5.56
2023-04-28T01:16:21.324Z,5.65
2023-04-28T01:17:21.300Z,5.72
2023-04-28T01:18:21.299Z,5.77
2023-04-28T01:19:21.325Z,5.75
2023-04-28T01:20:21.358Z,5.78
2023-04-28T01:21:21.363Z,5.83
2023-04-28T01:22:21.386Z,5.84
2023-04-28T01:23:21.403Z,5.90
2023-04-28T01:24:21.367Z,5.90
2023-04-28T01:25:21.349Z,5.97
2023-04-28T01:26:21.303Z,5.85
2023-04-28T01:27:21.280Z,5.85
2023-04-28T01:28:21.244Z,5.93
2023-04-28T01:29:21.173Z,5.96
2023-04-28T01:30:21.164Z,5.97
2023-04-28T01:31:21.152Z,6.00
2023-04-28T01:32:21.107Z,5.97
2023-04-28T01:33:21.075Z,5.91
2023-04-28T01:34:21.088Z,5.96
2023-04-28T01:35:21.003Z,5.94
2023-04-28T01:36:20.982Z,5.98
2023-04-28T01:37:20.933Z,6.02
2023-04-28T01:38:20.924Z,5.99
2023-04-28T01:39:20.891Z,6.03
2023-04-28T01:40:20.869Z,6.07
2023-04-28T01:41:20.822Z,6.12
2023-04-28T01:42:20.793Z,6.15
2023-04-28T01:43:20.761Z,6.19
2023-04-28T01:44:20.725Z,6.15
2023-04-28T01:45:20.701Z,6.11
2023-04-28T01:46:20.699Z,6.15
2023-04-28T01:47:20.631Z,6.23
2023-04-28T01:48:20.581Z,6.21
2023-04-28T01:49:20.628Z,6.20
2023-04-28T01:50:20.504Z,6.25
2023-04-28T01:51:20.439Z,6.22
2023-04-28T01:52:20.420Z,6.28
2023-04-28T01:53:20.446Z,6.30
2023-04-28T01:54:20.418Z,6.39
2023-04-28T01:55:20.418Z,6.43
2023-04-28T01:56:20.415Z,6.46
2023-04-28T01:57:22.298Z,6.51
2023-04-28T01:58:20.414Z,6.54
2023-04-28T01:59:20.426Z,6.53
2023-04-28T02:00:20.425Z,6.58
2023-04-28T02:01:20.476Z,6.64
2023-04-28T02:02:20.456Z,6.68
2023-04-28T02:03:20.588Z,6.74
2023-04-28T02:04:20.514Z,6.78
2023-04-28T02:05:20.429Z,6.80
2023-04-28T02:06:20.482Z,6.81
2023-04-28T02:07:20.498Z,6.84
2023-04-28T02:08:20.481Z,6.82
2023-04-28T02:09:20.474Z,6.83
2023-04-28T02:10:20.432Z,6.87
2023-04-28T02:11:20.419Z,6.89
2023-04-28T02:12:20.396Z,6.90
2023-04-28T02:13:20.350Z,6.92
2023-04-28T02:14:20.337Z,6.94
2023-04-28T02:15:20.301Z,6.95
2023-04-28T02:16:20.317Z,6.96
2023-04-28T02:17:20.267Z,6.94
2023-04-28T02:18:20.283Z,6.99
2023-04-28T02:19:20.224Z,7.05
2023-04-28T02:20:20.189Z,7.04
2023-04-28T02:21:20.196Z,7.09
2023-04-28T02:22:20.157Z,7.10
2023-04-28T02:23:20.122Z,7.07
2023-04-28T02:24:20.097Z,7.12
2023-04-28T02:25:20.071Z,7.17
2023-04-28T02:26:20.023Z,7.18
2023-04-28T02:27:20.022Z,7.18
2023-04-28T02:28:20.026Z,7.18
2023-04-28T02:29:20.027Z,7.18
2023-04-28T02:30:20.062Z,7.19
2023-04-28T02:31:20.070Z,7.25
2023-04-28T02:32:20.050Z,7.29
2023-04-28T02:33:20.044Z,7.32
2023-04-28T02:34:20.068Z,7.35
2023-04-28T02:35:20.036Z,7.38
2023-04-28T02:36:20.081Z,7.41
2023-04-28T02:37:20.732Z,7.41
2023-04-28T02:38:20.725Z,7.37
2023-04-28T02:39:20.115Z,7.37
2023-04-28T02:40:20.230Z,7.40
2023-04-28T02:41:20.101Z,7.39
2023-04-28T02:42:20.733Z,7.40
2023-04-28T02:43:20.287Z,7.45
2023-04-28T02:44:20.122Z,7.44
2023-04-28T02:45:20.151Z,7.44
2023-04-28T02:46:20.158Z,7.48
2023-04-28T02:47:20.098Z,7.46
2023-04-28T02:48:20.099Z,7.47
2023-04-28T02:49:20.118Z,7.49
2023-04-28T02:50:20.103Z,7.55
2023-04-28T02:51:20.075Z,7.58
2023-04-28T02:52:20.145Z,7.58
2023-04-28T02:53:20.051Z,7.60
2023-04-28T02:54:20.016Z,7.64
2023-04-28T02:55:20.028Z,7.66
2023-04-28T02:56:19.981Z,7.66
2023-04-28T02:57:19.974Z,7.63
2023-04-28T02:58:19.902Z,7.66
2023-04-28T02:59:19.875Z,7.72
2023-04-28T03:00:19.922Z,7.77
2023-04-28T03:01:19.807Z,7.79
2023-04-28T03:02:19.728Z,7.81
2023-04-28T03:03:19.778Z,7.79
2023-04-28T03:04:20.108Z,7.82
2023-04-28T03:05:19.619Z,7.82
2023-04-28T03:06:19.570Z,7.86
2023-04-28T03:07:19.516Z,7.90
2023-04-28T03:08:19.454Z,7.90
2023-04-28T03:09:19.439Z,7.83
2023-04-28T03:10:19.389Z,7.80
2023-04-28T03:11:19.358Z,7.79
2023-04-28T03:12:19.333Z,7.75
2023-04-28T03:13:19.330Z,7.71
2023-04-28T03:14:19.299Z,7.60
2023-04-28T03:15:19.263Z,7.58
2023-04-28T03:16:19.277Z,7.56
2023-04-28T03:17:19.195Z,7.59
2023-04-28T03:18:19.175Z,7.64
2023-04-28T03:19:19.131Z,7.62
2023-04-28T03:20:19.115Z,7.58
2023-04-28T03:21:19.061Z,7.56
2023-04-28T03:22:19.030Z,7.55
2023-04-28T03:23:18.960Z,7.53
2023-04-28T03:24:18.941Z,7.54
2023-04-28T03:25:18.858Z,7.59
2023-04-28T03:26:18.795Z,7.59
2023-04-28T03:27:18.758Z,7.63
2023-04-28T03:28:18.695Z,7.55
2023-04-28T03:29:18.624Z,7.52
2023-04-28T03:30:18.596Z,7.52
2023-04-28T03:31:18.538Z,7.52
2023-04-28T03:32:18.609Z,7.46
2023-04-28T03:33:18.534Z,7.51
2023-04-28T03:34:18.651Z,7.52
2023-04-28T03:35:18.555Z,7.51
2023-04-28T03:36:18.572Z,7.50
2023-04-28T03:37:18.578Z,7.55
2023-04-28T03:38:18.613Z,7.58
2023-04-28T03:39:18.586Z,7.54
2023-04-28T03:40:18.644Z,7.48
2023-04-28T03:41:18.658Z,7.48
2023-04-28T03:42:18.648Z,7.47
2023-04-28T03:43:18.627Z,7.50
2023-04-28T03:44:18.623Z,7.49
2023-04-28T03:45:18.631Z,7.50
2023-04-28T03:46:18.637Z,7.55
2023-04-28T03:47:18.604Z,7.57
2023-04-28T03:48:18.640Z,7.55
2023-04-28T03:49:18.593Z,7.56
2023-04-28T03:50:18.612Z,7.58
2023-04-28T03:51:18.562Z,7.63
2023-04-28T03:52:18.565Z,7.66
2023-04-28T03:53:18.541Z,7.71
2023-04-28T03:54:18.616Z,7.75
2023-04-28T03:55:18.571Z,7.78
2023-04-28T03:56:18.742Z,7.78
2023-04-28T03:57:18.545Z,7.80
2023-04-28T03:58:18.545Z,7.81
2023-04-28T03:59:18.548Z,7.82
2023-04-28T04:00:18.563Z,7.82
2023-04-28T04:01:18.569Z,7.84
2023-04-28T04:02:18.584Z,7.86
2023-04-28T04:03:18.579Z,7.88
2023-04-28T04:04:18.721Z,7.90
2023-04-28T04:05:18.606Z,7.95
2023-04-28T04:06:18.422Z,7.93
2023-04-28T04:07:18.383Z,7.88
2023-04-28T04:08:18.353Z,7.91
2023-04-28T04:09:18.381Z,7.94
2023-04-28T04:10:18.328Z,7.93
2023-04-28T04:11:18.358Z,8.01
2023-04-28T04:12:18.342Z,8.00
2023-04-28T04:13:18.337Z,8.01
2023-04-28T04:14:18.550Z,7.98
2023-04-28T04:15:18.363Z,8.00
2023-04-28T04:16:18.372Z,8.02
2023-04-28T04:17:18.317Z,8.03
2023-04-28T04:18:18.282Z,8.02
2023-04-28T04:19:19.250Z,8.04
2023-04-28T04:20:19.235Z,8.11
2023-04-28T04:21:18.391Z,8.12
2023-04-28T04:22:18.221Z,8.14
2023-04-28T04:23:18.194Z,8.17
2023-04-28T04:24:18.329Z,8.23
2023-04-28T04:25:18.153Z,8.25
2023-04-28T04:26:18.167Z,8.27
2023-04-28T04:27:18.136Z,8.33
2023-04-28T04:28:18.125Z,8.37
2023-04-28T04:29:18.126Z,8.39
2023-04-28T04:30:18.143Z,8.39
2023-04-28T04:31:18.141Z,8.42
2023-04-28T04:32:18.104Z,8.45
2023-04-28T04:33:18.119Z,8.48
2023-04-28T04:34:18.328Z,8.50
2023-04-28T04:35:18.119Z,8.51
2023-04-28T04:36:18.125Z,8.54
2023-04-28T04:37:18.109Z,8.52
2023-04-28T04:38:18.031Z,8.56
2023-04-28T04:39:18.088Z,8.62
2023-04-28T04:40:17.962Z,8.61
2023-04-28T04:41:17.949Z,8.67
2023-04-28T04:43:18.860Z,8.68
2023-04-28T04:44:18.030Z,8.68
2023-04-28T04:45:17.791Z,8.69
2023-04-28T04:46:17.758Z,8.74
2023-04-28T04:47:17.719Z,8.69
2023-04-28T04:48:17.658Z,8.68
2023-04-28T04:49:17.628Z,8.70
2023-04-28T04:50:17.594Z,8.67
2023-04-28T04:51:17.643Z,8.65
2023-04-28T04:52:17.556Z,8.66
2023-04-28T04:53:17.524Z,8.68
2023-04-28T04:54:17.704Z,8.69
2023-04-28T04:55:17.444Z,8.72
2023-04-28T04:56:17.438Z,8.71
2023-04-28T04:57:17.453Z,8.72
2023-04-28T04:58:17.456Z,8.73
2023-04-28T04:59:17.426Z,8.78
2023-04-28T05:00:17.429Z,8.77
2023-04-28T05:01:17.516Z,8.75
2023-04-28T05:02:17.613Z,8.75
2023-04-28T05:03:17.567Z,8.82
2023-04-28T05:04:17.933Z,8.90
2023-04-28T05:05:22.010Z,8.99
2023-04-28T05:06:18.421Z,9.00
2023-04-28T05:07:17.349Z,9.06
2023-04-28T05:08:17.294Z,9.08
2023-04-28T05:09:17.254Z,9.14
2023-04-28T05:10:17.190Z,9.17
2023-04-28T05:11:17.162Z,9.19
2023-04-28T05:12:17.191Z,9.22
2023-04-28T05:13:17.052Z,9.26
2023-04-28T05:14:17.267Z,9.27
2023-04-28T05:15:16.994Z,9.29
2023-04-28T05:16:16.972Z,9.39
2023-04-28T05:17:16.878Z,9.36
2023-04-28T05:18:16.817Z,9.33
2023-04-28T05:19:16.782Z,9.37
2023-04-28T05:20:16.785Z,9.39
2023-04-28T05:21:16.728Z,9.41
2023-04-28T05:22:16.709Z,9.40
2023-04-28T05:23:16.631Z,9.45
2023-04-28T05:24:16.764Z,9.54
2023-04-28T05:25:16.530Z,9.53
2023-04-28T05:26:16.576Z,9.49
2023-04-28T05:27:16.508Z,9.49
2023-04-28T05:28:16.516Z,9.54
2023-04-28T05:29:16.424Z,9.58
2023-04-28T05:30:16.953Z,9.59
2023-04-28T05:31:16.784Z,9.67
2023-04-28T05:32:16.297Z,9.70
2023-04-28T05:33:16.300Z,9.76
2023-04-28T05:34:16.471Z,9.77
2023-04-28T05:35:16.143Z,9.77
2023-04-28T05:36:16.029Z,9.76
2023-04-28T05:37:15.916Z,9.74
2023-04-28T05:38:15.924Z,9.64
2023-04-28T05:39:15.809Z,9.60
2023-04-28T05:40:15.700Z,9.63
2023-04-28T05:41:15.654Z,9.62
2023-04-28T05:42:15.567Z,9.60
2023-04-28T05:43:15.572Z,9.57
2023-04-28T05:44:15.686Z,9.59
2023-04-28T05:45:15.428Z,9.58
2023-04-28T05:46:29.353Z,9.49
2023-04-28T05:47:16.388Z,9.48
2023-04-28T05:48:15.375Z,9.42
2023-04-28T05:49:15.789Z,9.35
2023-04-28T05:50:15.756Z,9.32
2023-04-28T05:51:15.313Z,9.24
2023-04-28T05:52:15.176Z,9.25
2023-04-28T05:53:15.244Z,9.29
2023-04-28T05:54:16.046Z,9.32
2023-04-28T05:55:15.452Z,9.32
2023-04-28T05:56:15.114Z,9.30
2023-04-28T05:57:15.098Z,9.35
2023-04-28T05:58:14.994Z,9.35
2023-04-28T05:59:15.143Z,9.32
2023-04-28T06:00:14.870Z,9.33
2023-04-28T06:01:14.840Z,9.35
2023-04-28T06:02:14.786Z,9.35
2023-04-28T06:03:14.854Z,9.35
2023-04-28T06:04:14.848Z,9.34
2023-04-28T06:05:14.678Z,9.37
2023-04-28T06:06:14.586Z,9.27
2023-04-28T06:07:14.463Z,9.18
2023-04-28T06:08:14.461Z,9.13
2023-04-28T06:09:14.520Z,9.13
2023-04-28T06:10:14.379Z,9.07
2023-04-28T06:11:14.360Z,9.08
2023-04-28T06:12:15.285Z,9.12
2023-04-28T06:13:15.429Z,9.03
2023-04-28T06:14:16.678Z,9.03
2023-04-28T06:15:14.420Z,8.99
2023-04-28T06:16:15.334Z,9.03
2023-04-28T06:17:14.412Z,8.99
2023-04-28T06:18:14.328Z,8.99
2023-04-28T06:19:14.424Z,8.97
2023-04-28T06:20:14.426Z,9.01
2023-04-28T06:21:14.252Z,9.04
2023-04-28T06:22:14.228Z,9.03
2023-04-28T06:23:14.172Z,9.00
2023-04-28T06:24:14.316Z,8.91
2023-04-28T06:25:14.143Z,8.83
2023-04-28T06:26:14.775Z,8.87
2023-04-28T06:27:14.162Z,8.90
2023-04-28T06:28:14.136Z,8.88
2023-04-28T06:29:14.113Z,8.85
2023-04-28T06:30:14.074Z,8.79
2023-04-28T06:31:14.179Z,8.80
2023-04-28T06:32:14.284Z,8.85
2023-04-28T06:33:13.990Z,8.90
2023-04-28T06:34:14.264Z,8.94
2023-04-28T06:35:14.183Z,8.93
2023-04-28T06:36:14.070Z,8.93
2023-04-28T06:37:15.801Z,8.93
2023-04-28T06:38:13.985Z,8.90
2023-04-28T06:39:13.962Z,8.90
2023-04-28T06:40:13.921Z,8.93
2023-04-28T06:41:16.797Z,9.01
2023-04-28T06:42:13.788Z,9.07
2023-04-28T06:43:13.734Z,9.11
2023-04-28T06:44:13.623Z,9.13
2023-04-28T06:45:13.575Z,9.18
2023-04-28T06:46:13.542Z,9.25
2023-04-28T06:47:13.416Z,9.28
2023-04-28T06:48:13.434Z,9.28
2023-04-28T06:49:13.319Z,9.32
2023-04-28T06:50:13.341Z,9.38
2023-04-28T06:51:13.161Z,9.37
2023-04-28T06:52:13.322Z,9.32
2023-04-28T06:53:13.117Z,9.26
2023-04-28T06:54:12.953Z,9.28
2023-04-28T06:55:12.863Z,9.34
2023-04-28T06:56:13.003Z,9.36
2023-04-28T06:57:12.854Z,9.33
2023-04-28T06:58:12.712Z,9.26
2023-04-28T06:59:12.627Z,9.28
2023-04-28T07:00:12.582Z,9.30
2023-04-28T07:01:12.625Z,9.36
2023-04-28T07:02:12.805Z,9.40
2023-04-28T07:03:12.625Z,9.53
2023-04-28T07:04:12.438Z,9.60
2023-04-28T07:05:14.161Z,9.66
2023-04-28T07:06:12.230Z,9.67
2023-04-28T07:07:12.137Z,9.72
2023-04-28T07:08:12.150Z,9.74
2023-04-28T07:09:12.070Z,9.73
2023-04-28T07:10:12.169Z,9.70
2023-04-28T07:11:11.805Z,9.79
2023-04-28T07:12:11.732Z,9.80
2023-04-28T07:13:12.278Z,9.76
2023-04-28T07:14:11.693Z,9.70
2023-04-28T07:15:11.533Z,9.59
2023-04-28T07:16:13.376Z,9.61
2023-04-28T07:17:11.392Z,9.64
2023-04-28T07:18:11.340Z,9.63
2023-04-28T07:19:11.264Z,9.60
2023-04-28T07:20:11.206Z,9.74
2023-04-28T07:21:11.138Z,9.82
2023-04-28T07:22:11.045Z,9.86
2023-04-28T07:23:10.972Z,9.91
2023-04-28T07:24:10.904Z,9.94
2023-04-28T07:25:10.846Z,10.07
2023-04-28T07:26:11.478Z,10.09
2023-04-28T07:27:10.709Z,10.12
2023-04-28T07:28:10.629Z,10.15
2023-04-28T07:29:10.646Z,9.98
2023-04-28T07:30:25.770Z,9.89
2023-04-28T07:31:10.435Z,9.92
2023-04-28T07:32:10.520Z,9.93
2023-04-28T07:33:10.318Z,9.97
2023-04-28T07:34:10.489Z,9.98
2023-04-28T07:35:10.201Z,9.95
2023-04-28T07:36:10.095Z,9.90
2023-04-28T07:37:10.106Z,9.82
2023-04-28T07:38:09.995Z,9.92
2023-04-28T07:39:10.041Z,9.83
2023-04-28T07:40:10.111Z,9.83
2023-04-28T07:41:11.175Z,9.85
2023-04-28T07:42:09.782Z,9.81
2023-04-28T07:43:09.745Z,9.79
2023-04-28T07:44:09.834Z,9.74
2023-04-28T07:45:09.687Z,9.77
2023-04-28T07:46:10.063Z,9.67
2023-04-28T07:47:09.671Z,9.70
2023-04-28T07:48:09.633Z,9.74
2023-04-28T07:49:09.637Z,9.73
2023-04-28T07:50:09.751Z,9.80
2023-04-28T07:51:09.637Z,9.85
2023-04-28T07:52:09.656Z,9.82
2023-04-28T07:53:09.646Z,9.91
2023-04-28T07:54:09.594Z,10.01
2023-04-28T07:55:09.520Z,9.99
2023-04-28T07:56:09.498Z,9.97
2023-04-28T07:57:09.822Z,9.93
2023-04-28T07:58:09.354Z,9.97
2023-04-28T07:59:09.281Z,10.02
2023-04-28T08:00:09.249Z,10.12
2023-04-28T08:01:09.262Z,10.11
2023-04-28T08:02:09.248Z,10.01
2023-04-28T08:03:09.386Z,9.99
2023-04-28T08:04:09.471Z,9.99
2023-04-28T08:05:09.319Z,10.03
2023-04-28T08:06:09.065Z,9.99
2023-04-28T08:07:09.322Z,9.90
2023-04-28T08:08:09.098Z,9.77
2023-04-28T08:09:08.853Z,9.83
2023-04-28T08:10:08.819Z,9.90
2023-04-28T08:11:08.819Z,10.02
2023-04-28T08:12:08.759Z,10.18
2023-04-28T08:13:08.704Z,10.19
2023-04-28T08:14:08.649Z,10.26
2023-04-28T08:15:09.028Z,10.25
2023-04-28T08:16:08.608Z,10.19
2023-04-28T08:17:08.527Z,10.18
2023-04-28T08:18:08.555Z,10.18
2023-04-28T08:19:08.638Z,10.17
2023-04-28T08:20:09.292Z,10.10
2023-04-28T08:21:08.451Z,10.12
2023-04-28T08:22:08.834Z,10.08
2023-04-28T08:23:09.443Z,10.17
2023-04-28T08:24:08.425Z,10.32
2023-04-28T08:25:08.381Z,10.34
2023-04-28T08:26:09.314Z,10.19
2023-04-28T08:27:08.397Z,10.07
2023-04-28T08:28:08.288Z,9.97
2023-04-28T08:29:08.223Z,9.97
2023-04-28T08:30:08.215Z,9.96
2023-04-28T08:31:08.216Z,10.07
2023-04-28T08:32:08.434Z,10.13
2023-04-28T08:33:08.104Z,10.14
2023-04-28T08:34:07.994Z,10.15
2023-04-28T08:35:08.161Z,10.02
2023-04-28T08:36:07.992Z,9.85
2023-04-28T08:37:07.885Z,9.94
2023-04-28T08:38:08.940Z,9.87
2023-04-28T08:39:08.141Z,9.79
2023-04-28T08:40:08.987Z,9.79
2023-04-28T08:41:07.850Z,9.91
2023-04-28T08:42:07.927Z,9.96
2023-04-28T08:43:13.123Z,9.92
2023-04-28T08:44:07.764Z,9.92
2023-04-28T08:45:07.901Z,9.87
2023-04-28T08:46:07.770Z,9.74
2023-04-28T08:47:08.277Z,9.82
2023-04-28T08:48:07.893Z,9.83
2023-04-28T08:49:07.712Z,9.83
2023-04-28T08:50:08.286Z,9.75
2023-04-28T08:51:07.708Z,9.72
2023-04-28T08:52:07.779Z,9.66
2023-04-28T08:53:10.303Z,9.66
2023-04-28T08:55:07.850Z,9.58
2023-04-28T08:56:07.887Z,9.40
2023-04-28T08:57:08.304Z,9.45
2023-04-28T08:58:07.813Z,9.59
2023-04-28T08:59:07.721Z,9.57
2023-04-28T09:00:07.714Z,9.49
2023-04-28T09:01:07.720Z,9.52
2023-04-28T09:02:07.746Z,9.51
2023-04-28T09:03:07.835Z,9.39
2023-04-28T09:04:07.968Z,9.47
2023-04-28T09:05:07.955Z,9.54
2023-04-28T09:06:07.692Z,9.58
2023-04-28T09:07:07.688Z,9.60
2023-04-28T09:08:07.699Z,9.53
2023-04-28T09:09:07.700Z,9.52
2023-04-28T09:10:07.696Z,9.50
2023-04-28T09:11:07.674Z,9.59
2023-04-28T09:12:07.693Z,9.66
2023-04-28T09:13:07.654Z,9.72
2023-04-28T09:14:07.606Z,9.74
2023-04-28T09:15:07.641Z,9.70
2023-04-28T09:16:07.589Z,9.73
2023-04-28T09:17:07.572Z,9.78
2023-04-28T09:18:07.873Z,9.97
2023-04-28T09:19:09.293Z,9.96
2023-04-28T09:20:07.512Z,10.08
2023-04-28T09:21:08.306Z,10.13
2023-04-28T09:22:14.385Z,10.18
2023-04-28T09:23:08.435Z,10.06
2023-04-28T09:24:07.312Z,10.15
2023-04-28T09:25:07.255Z,10.23
2023-04-28T09:26:07.188Z,10.32
2023-04-28T09:27:07.189Z,10.20
2023-04-28T09:28:08.861Z,10.12
2023-04-28T09:29:07.838Z,9.95
2023-04-28T09:30:07.008Z,9.88
2023-04-28T09:31:06.956Z,9.91
2023-04-28T09:32:07.106Z,9.91
2023-04-28T09:33:08.244Z,10.04
2023-04-28T09:34:06.860Z,10.07
2023-04-28T09:35:06.930Z,10.14
2023-04-28T09:36:06.901Z,10.03
2023-04-28T09:37:06.809Z,10.11
2023-04-28T09:38:06.813Z,10.13
2023-04-28T09:39:07.504Z,10.23
2023-04-28T09:40:06.642Z,10.15
2023-04-28T09:41:06.671Z,10.06
2023-04-28T09:42:06.797Z,10.09
2023-04-28T09:43:20.987Z,10.15
2023-04-28T09:44:07.603Z,10.29
2023-04-28T09:45:07.557Z,10.33
2023-04-28T09:46:07.327Z,10.34
2023-04-28T09:47:07.211Z,10.22
2023-04-28T09:48:06.512Z,10.15
2023-04-28T09:49:06.807Z,10.14
2023-04-28T09:50:06.279Z,10.19
2023-04-28T09:51:06.831Z,10.21
2023-04-28T09:52:06.999Z,10.18
2023-04-28T09:53:06.173Z,10.24
2023-04-28T09:54:05.975Z,10.23
2023-04-28T09:55:06.117Z,10.20
2023-04-28T09:56:05.873Z,10.26
2023-04-28T09:57:05.992Z,10.38
2023-04-28T09:58:06.720Z,10.29
2023-04-28T09:59:05.809Z,10.31
2023-04-28T10:00:05.858Z,10.28
2023-04-28T10:01:05.757Z,10.27
2023-04-28T10:02:22.538Z,10.41
2023-04-28T10:03:06.819Z,10.61
2023-04-28T10:04:05.810Z,10.69
2023-04-28T10:05:05.769Z,10.76
2023-04-28T10:06:05.648Z,10.60
2023-04-28T10:07:05.455Z,10.47
2023-04-28T10:08:05.438Z,10.51
2023-04-28T10:09:06.412Z,10.45
2023-04-28T10:10:05.635Z,10.51
2023-04-28T10:11:05.356Z,10.48
2023-04-28T10:12:05.807Z,10.50
2023-04-28T10:13:06.828Z,10.50
2023-04-28T10:14:05.162Z,10.63
2023-04-28T10:15:05.123Z,10.72
2023-04-28T10:16:09.207Z,10.68
2023-04-28T10:17:05.910Z,10.78
2023-04-28T10:18:05.166Z,10.89
2023-04-28T10:19:04.913Z,10.92
2023-04-28T10:20:04.847Z,11.02
2023-04-28T10:21:05.306Z,11.06
2023-04-28T10:22:05.362Z,11.15
2023-04-28T10:23:04.743Z,11.26
2023-04-28T10:24:04.547Z,11.40
2023-04-28T10:25:04.519Z,11.55
2023-04-28T10:26:04.444Z,11.63
2023-04-28T10:27:04.298Z,11.42
2023-04-28T10:28:04.358Z,11.25
2023-04-28T10:29:04.144Z,11.15
2023-04-28T10:30:08.325Z,11.05
2023-04-28T10:31:05.834Z,11.00
2023-04-28T10:32:03.924Z,10.90
2023-04-28T10:33:03.917Z,10.82
2023-04-28T10:34:04.330Z,10.82
2023-04-28T10:35:03.890Z,10.89
2023-04-28T10:36:03.741Z,10.93
2023-04-28T10:37:04.323Z,11.02
2023-04-28T10:38:03.580Z,11.05
2023-04-28T10:39:03.513Z,10.98
2023-04-28T10:40:03.428Z,10.88
2023-04-28T10:41:03.453Z,10.93
2023-04-28T10:42:03.808Z,10.95
2023-04-28T10:43:03.362Z,10.92
2023-04-28T10:44:03.136Z,11.00
2023-04-28T10:45:03.095Z,11.02
2023-04-28T10:46:03.088Z,11.10
2023-04-28T10:47:02.943Z,11.23
2023-04-28T10:48:03.005Z,11.51
2023-04-28T10:49:03.323Z,11.75
2023-04-28T10:50:05.356Z,11.90
2023-04-28T10:51:02.610Z,12.03
2023-04-28T10:52:02.557Z,12.09
2023-04-28T10:53:02.482Z,12.08
2023-04-28T10:54:03.306Z,12.21
2023-04-28T10:55:09.652Z,12.25
2023-04-28T10:56:03.309Z,12.29
2023-04-28T10:57:02.140Z,12.37
2023-04-28T10:58:02.059Z,12.45
2023-04-28T10:59:01.976Z,12.37
2023-04-28T11:00:02.002Z,12.40
2023-04-28T11:01:02.872Z,12.59
2023-04-28T11:02:01.804Z,12.68
2023-04-28T11:03:01.757Z,12.61
2023-04-28T11:04:01.733Z,12.65
2023-04-28T11:05:01.576Z,12.62
2023-04-28T11:06:01.439Z,12.70
2023-04-28T11:07:01.322Z,12.77
2023-04-28T11:08:01.232Z,12.88
2023-04-28T11:09:01.188Z,12.98
2023-04-28T11:10:15.919Z,13.06
2023-04-28T11:11:01.072Z,13.13
2023-04-28T11:12:00.928Z,13.28
2023-04-28T11:13:00.871Z,13.08
2023-04-28T11:14:00.816Z,13.12
2023-04-28T11:15:00.649Z,13.07
2023-04-28T11:16:00.623Z,12.99
2023-04-28T11:17:00.487Z,12.70
2023-04-28T11:18:00.574Z,12.68
2023-04-28T11:19:00.972Z,12.59
2023-04-28T11:20:00.537Z,12.64
2023-04-28T11:21:01.366Z,12.77
2023-04-28T11:22:01.305Z,12.72
2023-04-28T11:23:00.821Z,12.62
2023-04-28T11:24:00.470Z,12.82
2023-04-28T11:25:00.609Z,12.95
2023-04-28T11:26:01.122Z,12.86
2023-04-28T11:27:00.415Z,12.84
2023-04-28T11:28:00.111Z,12.99
2023-04-28T11:29:00.084Z,13.22
2023-04-28T11:30:00.197Z,13.34
2023-04-28T11:31:00.021Z,13.51
2023-04-28T11:31:59.987Z,13.54
2023-04-28T11:32:59.992Z,13.44
2023-04-28T11:33:59.813Z,13.39
2023-04-28T11:34:59.718Z,13.54
2023-04-28T11:35:59.707Z,13.60
2023-04-28T11:36:59.608Z,13.31
2023-04-28T11:37:59.526Z,13.34
2023-04-28T11:38:59.465Z,13.30
2023-04-28T11:39:59.418Z,13.47
2023-04-28T11:40:59.318Z,13.59
2023-04-28T11:41:59.216Z,13.93
2023-04-28T11:43:00.114Z,14.21
2023-04-28T11:43:59.283Z,14.30
2023-04-28T11:44:59.190Z,14.38
2023-04-28T11:45:59.112Z,14.47
2023-04-28T11:46:59.216Z,14.55
2023-04-28T11:47:58.967Z,14.86
2023-04-28T11:48:58.864Z,15.12
2023-04-28T11:49:58.743Z,15.41
2023-04-28T11:50:58.710Z,15.30
2023-04-28T11:51:59.345Z,15.21
2023-04-28T11:52:58.419Z,15.04
2023-04-28T11:53:58.320Z,14.85
2023-04-28T11:54:58.248Z,14.66
2023-04-28T11:55:58.844Z,14.44
2023-04-28T11:56:58.084Z,13.87
2023-04-28T11:57:58.018Z,13.91
2023-04-28T11:58:58.020Z,13.75
2023-04-28T11:59:57.960Z,13.69
2023-04-28T12:00:58.061Z,13.88
2023-04-28T12:01:57.925Z,14.09
2023-04-28T12:02:57.908Z,14.12
2023-04-28T12:03:57.845Z,14.09
2023-04-28T12:04:57.775Z,13.76
2023-04-28T12:05:57.809Z,13.77
2023-04-28T12:06:57.657Z,13.74
2023-04-28T12:07:57.590Z,13.77
2023-04-28T12:08:57.594Z,13.70
2023-04-28T12:09:58.240Z,13.75
2023-04-28T12:10:57.496Z,13.84
2023-04-28T12:11:57.441Z,13.64
2023-04-28T12:12:57.469Z,13.65
2023-04-28T12:13:57.331Z,13.78
2023-04-28T12:14:57.325Z,13.85
2023-04-28T12:15:57.293Z,14.08
2023-04-28T12:16:57.190Z,14.17
2023-04-28T12:17:57.207Z,14.30
2023-04-28T12:18:57.068Z,14.38
2023-04-28T12:19:56.966Z,14.53
2023-04-28T12:20:56.912Z,14.29
2023-04-28T12:21:56.863Z,14.23
2023-04-28T12:22:56.797Z,14.32
2023-04-28T12:23:56.711Z,14.44
2023-04-28T12:24:56.606Z,14.31
2023-04-28T12:25:56.536Z,14.21
2023-04-28T12:26:56.449Z,14.29
2023-04-28T12:27:57.344Z,14.47
2023-04-28T12:28:56.276Z,14.64
2023-04-28T12:29:56.909Z,14.54
2023-04-28T12:30:56.076Z,14.64
2023-04-28T12:31:55.959Z,14.76
2023-04-28T12:32:56.150Z,14.92
2023-04-28T12:33:55.762Z,15.01
2023-04-28T12:34:55.795Z,15.21
2023-04-28T12:35:55.599Z,15.40
2023-04-28T12:36:55.459Z,15.43
2023-04-28T12:37:55.413Z,15.42
2023-04-28T12:38:55.291Z,15.44
2023-04-28T12:39:55.228Z,15.65
2023-04-28T12:40:55.100Z,15.71
2023-04-28T12:41:54.999Z,15.60
2023-04-28T12:42:54.956Z,15.72
2023-04-28T12:43:54.878Z,15.71
2023-04-28T12:44:54.741Z,15.63
2023-04-28T12:45:55.522Z,15.43
2023-04-28T12:46:54.580Z,15.28
2023-04-28T12:47:55.457Z,15.28
2023-04-28T12:48:54.465Z,15.21
2023-04-28T12:49:54.426Z,15.26
2023-04-28T12:50:54.356Z,15.51
2023-04-28T12:51:54.323Z,15.69
2023-04-28T12:52:54.189Z,15.78
2023-04-28T12:53:54.143Z,15.74
2023-04-28T12:54:54.060Z,15.90
2023-04-28T12:55:54.022Z,16.06
2023-04-28T12:56:53.944Z,16.21
2023-04-28T12:57:53.816Z,16.11
2023-04-28T12:58:53.778Z,16.36
2023-04-28T12:59:54.376Z,16.57
2023-04-28T13:00:53.589Z,16.67
2023-04-28T13:01:53.526Z,16.71
2023-04-28T13:02:53.609Z,16.70
2023-04-28T13:03:53.633Z,16.79
2023-04-28T13:04:53.698Z,16.88
2023-04-28T13:05:53.193Z,17.23
2023-04-28T13:06:53.118Z,17.31
2023-04-28T13:07:53.083Z,17.19
2023-04-28T13:08:52.951Z,17.04
2023-04-28T13:09:52.817Z,16.69
2023-04-28T13:10:52.728Z,16.44